Time;durP1;ratioP1;P1;durP2;ratioP2;P2;SDS_P1;SDS_P2;PMS_P1;PMS_P2;Temp;Humidity;BMP_temperature;BMP_pressure;BME280_temperature;BME280_humidity;BME280_pressure;Samples;Min_cycle;Max_cycle;Signal;HPM_P1;HPM_P2
2020/12/20 00:00:21;;;;;;;11.33;5.90;;;;;;;14.85;86.93;101343.09;5020209;28;20447;-60
2020/12/20 00:02:52;;;;;;;12.20;5.93;;;;;;;14.80;86.55;101337.53;5020352;28;20042;-61
2020/12/20 00:05:19;;;;;;;11.60;5.43;;;;;;;14.92;86.25;101332.31;5021813;28;20057;-59
2020/12/20 00:07:45;;;;;;;16.95;5.45;;;;;;;15.04;85.80;101346.78;5012580;28;20372;-61
2020/12/20 00:10:12;;;;;;;9.20;5.50;;;;;;;14.96;86.27;101343.50;5011705;28;20127;-61
2020/12/20 00:12:37;;;;;;;9.60;5.40;;;;;;;15.00;86.17;101345.56;5012067;28;20040;-60
2020/12/20 00:15:04;;;;;;;10.13;5.28;;;;;;;15.40;82.87;101338.34;4995671;28;20046;-61
2020/12/20 00:17:30;;;;;;;12.85;4.43;;;;;;;15.38;82.51;101341.25;5011128;28;20453;-60
2020/12/20 00:19:55;;;;;;;11.43;4.87;;;;;;;15.47;81.37;101328.34;5011521;28;20041;-60
2020/12/20 00:22:21;;;;;;;10.37;5.30;;;;;;;15.47;82.51;101328.34;5011081;28;20041;-60
2020/12/20 00:24:46;;;;;;;11.70;4.87;;;;;;;15.34;82.73;101335.47;5012213;28;20038;-60
2020/12/20 00:27:12;;;;;;;16.23;4.77;;;;;;;15.57;80.95;101323.31;5011295;28;20486;-60
2020/12/20 00:29:38;;;;;;;13.27;5.73;;;;;;;15.83;78.87;101332.25;5014824;28;20033;-60
2020/12/20 00:32:06;;;;;;;15.10;5.68;;;;;;;15.86;78.26;101331.00;5014525;28;20048;-60
2020/12/20 00:34:32;;;;;;;12.73;5.35;;;;;;;15.94;77.38;101338.03;5013144;28;20056;-61
2020/12/20 00:36:58;;;;;;;10.50;4.97;;;;;;;15.58;80.44;101341.13;5011633;28;20100;-60
2020/12/20 00:39:24;;;;;;;9.93;4.80;;;;;;;15.70;79.55;101343.16;5027163;28;20473;-60
2020/12/20 00:41:52;;;;;;;12.13;5.45;;;;;;;15.71;78.90;101336.72;5010567;28;20052;-61
2020/12/20 00:44:36;;;;;;;13.43;6.07;;;;;;;15.74;78.67;101344.38;5015202;28;20436;-60
2020/12/20 00:47:04;;;;;;;15.18;6.00;;;;;;;15.66;79.15;101337.34;5015285;28;20109;-59
2020/12/20 00:49:31;;;;;;;10.25;5.85;;;;;;;15.62;79.29;101336.16;5016027;28;20125;-60
2020/12/20 00:52:00;;;;;;;13.13;5.57;;;;;;;15.42;80.18;101326.31;5014898;28;20068;-60
2020/12/20 00:54:26;;;;;;;12.02;5.70;;;;;;;15.32;81.86;101334.00;5015897;28;20475;-60
2020/12/20 00:56:53;;;;;;;8.97;5.10;;;;;;;15.34;81.99;101342.72;5030749;28;20068;-61
2020/12/20 00:59:18;;;;;;;18.55;6.35;;;;;;;15.30;82.42;101345.03;5015360;28;20034;-60
2020/12/20 01:01:44;;;;;;;15.32;6.53;;;;;;;15.71;78.77;101344.81;5015500;28;20041;-61
2020/12/20 01:04:10;;;;;;;12.88;5.50;;;;;;;15.63;78.16;101330.53;5030009;28;20405;-61
2020/12/20 01:06:36;;;;;;;13.30;6.15;;;;;;;15.76;77.80;101343.09;5015388;28;20482;-60
2020/12/20 01:09:17;;;;;;;14.15;6.00;;;;;;;15.76;78.06;101342.28;5013511;28;20359;-60
2020/12/20 01:11:43;;;;;;;15.82;6.35;;;;;;;15.46;79.94;101350.97;5013714;28;20038;-60
2020/12/20 01:14:09;;;;;;;13.87;6.47;;;;;;;15.43;79.95;101345.97;5013328;28;20519;-60
2020/12/20 01:16:38;;;;;;;13.25;6.32;;;;;;;15.85;77.32;101342.84;5030187;28;20290;-60
2020/12/20 01:19:03;;;;;;;19.17;6.93;;;;;;;14.79;84.76;101332.38;5029616;28;20046;-60
2020/12/20 01:21:29;;;;;;;13.95;6.32;;;;;;;15.31;81.37;101348.53;4997456;28;20433;-61
2020/12/20 01:23:55;;;;;;;11.02;6.50;;;;;;;15.08;82.90;101347.16;5012987;28;20132;-57
2020/12/20 01:26:22;;;;;;;15.10;7.18;;;;;;;14.96;84.41;101338.94;5013771;28;20038;-60
2020/12/20 01:28:48;;;;;;;15.27;7.28;;;;;;;15.16;82.52;101346.13;5015091;28;20064;-60
2020/12/20 01:31:15;;;;;;;15.20;6.65;;;;;;;15.16;82.38;101354.19;5014226;28;20236;-60
2020/12/20 01:34:00;;;;;;;21.15;7.35;;;;;;;15.02;83.94;101323.78;5029409;28;20091;-60
2020/12/20 01:36:29;;;;;;;20.42;7.68;;;;;;;15.00;84.59;101366.28;5013478;28;20033;-61
2020/12/20 01:38:59;;;;;;;14.48;6.30;;;;;;;15.04;83.71;101356.72;5012702;28;20034;-59
2020/12/20 01:41:24;;;;;;;16.30;6.93;;;;;;;14.73;86.05;101367.16;5014689;28;20041;-60
2020/12/20 01:43:53;;;;;;;13.98;6.88;;;;;;;15.18;82.34;101368.28;5013153;28;20128;-61
2020/12/20 01:46:33;;;;;;;19.30;6.85;;;;;;;15.10;83.06;101363.13;5013506;28;20045;-60
2020/12/20 01:49:01;;;;;;;16.25;8.30;;;;;;;15.15;82.49;101348.00;4996618;28;20045;-60
2020/12/20 01:51:27;;;;;;;14.00;6.17;;;;;;;14.94;83.89;101350.97;5012877;28;20049;-60
2020/12/20 01:54:04;;;;;;;14.10;6.50;;;;;;;15.21;82.09;101346.28;5011919;28;20046;-61
2020/12/20 01:56:32;;;;;;;14.95;6.88;;;;;;;15.11;83.06;101351.31;5013149;28;20048;-60
2020/12/20 01:58:59;;;;;;;12.52;6.13;;;;;;;15.42;80.40;101355.94;5012830;28;20056;-56
2020/12/20 02:01:34;;;;;;;22.55;6.45;;;;;;;15.69;78.14;101353.09;5029544;28;20038;-60
2020/12/20 02:04:20;;;;;;;15.57;5.80;;;;;;;15.56;79.07;101351.31;5028649;28;20042;-61
2020/12/20 02:06:46;;;;;;;13.93;6.63;;;;;;;15.59;79.01;101353.56;5014135;28;20375;-61
2020/12/20 02:09:17;;;;;;;14.10;6.70;;;;;;;15.22;82.02;101358.72;5012081;28;20077;-61
2020/12/20 02:11:45;;;;;;;13.93;6.78;;;;;;;15.59;79.03;101340.09;5014260;28;20137;-61
2020/12/20 02:14:16;;;;;;;16.77;6.45;;;;;;;15.61;78.48;101346.09;5012090;28;20045;-60
2020/12/20 02:16:50;;;;;;;15.27;5.80;;;;;;;15.53;79.42;101364.38;5012544;28;20045;-60
2020/12/20 02:19:19;;;;;;;17.17;6.97;;;;;;;15.47;79.76;101360.72;5012110;28;20038;-60
2020/12/20 02:21:46;;;;;;;12.70;5.97;;;;;;;15.33;81.14;101349.97;5028971;28;20040;-60
2020/12/20 02:24:15;;;;;;;13.85;5.78;;;;;;;15.05;83.65;101359.22;5012041;28;20481;-60
2020/12/20 02:26:48;;;;;;;13.50;5.55;;;;;;;15.47;80.38;101364.22;5013730;28;20508;-60
2020/12/20 02:29:14;;;;;;;12.40;5.97;;;;;;;15.19;82.05;101354.59;5028133;28;20191;-60
2020/12/20 02:31:39;;;;;;;12.27;5.63;;;;;;;15.11;83.92;101356.72;5013566;28;20057;-61
2020/12/20 02:34:10;;;;;;;11.63;5.45;;;;;;;15.21;82.68;101362.47;5012926;28;20485;-61
2020/12/20 02:36:37;;;;;;;25.45;6.40;;;;;;;15.37;82.18;101369.25;5012327;28;20048;-61
2020/12/20 02:39:08;;;;;;;10.23;5.03;;;;;;;15.19;82.43;101354.59;5046784;28;20033;-62
2020/12/20 02:41:46;;;;;;;11.90;4.70;;;;;;;15.09;84.88;101369.56;5032022;28;20048;-61
2020/12/20 02:44:12;;;;;;;13.30;5.73;;;;;;;15.23;83.81;101365.78;5031266;28;20442;-60
2020/12/20 02:46:43;;;;;;;12.43;4.80;;;;;;;15.14;84.15;101357.13;5048797;28;20281;-61
2020/12/20 02:49:12;;;;;;;12.75;4.75;;;;;;;15.07;85.46;101366.25;5047859;28;20083;-60
2020/12/20 02:51:39;;;;;;;13.70;5.37;;;;;;;15.32;83.25;101359.09;5033095;28;20073;-61
2020/12/20 02:54:06;;;;;;;20.88;5.00;;;;;;;14.87;86.45;101356.38;5047300;28;20049;-60
2020/12/20 02:56:45;;;;;;;11.43;4.53;;;;;;;15.21;84.82;101367.84;5031245;28;20037;-60
2020/12/20 02:59:18;;;;;;;13.18;4.90;;;;;;;15.15;85.17;101363.31;5030931;28;20045;-60
2020/12/20 03:01:43;;;;;;;8.07;4.15;;;;;;;15.38;82.31;101367.38;5031544;28;20135;-60
2020/12/20 03:04:12;;;;;;;13.48;5.20;;;;;;;15.24;83.53;101359.34;5030800;28;20064;-59
2020/12/20 03:06:38;;;;;;;9.98;4.35;;;;;;;15.34;83.52;101370.50;5031181;28;20128;-60
2020/12/20 03:09:05;;;;;;;11.93;4.75;;;;;;;15.53;81.62;101370.63;5030943;28;20449;-59
2020/12/20 03:11:33;;;;;;;13.57;4.45;;;;;;;15.48;81.85;101355.09;5031568;28;20204;-60
2020/12/20 03:13:59;;;;;;;16.33;6.60;;;;;;;15.56;80.40;101359.41;5031403;28;20128;-60
2020/12/20 03:16:25;;;;;;;15.13;4.85;;;;;;;15.40;82.08;101360.72;5030803;28;20216;-60
2020/12/20 03:18:51;;;;;;;16.90;5.10;;;;;;;15.47;82.13;101380.38;5031369;28;20045;-60
2020/12/20 03:21:17;;;;;;;11.73;4.30;;;;;;;15.34;82.55;101367.78;5031907;28;20152;-60
2020/12/20 03:24:03;;;;;;;9.27;4.05;;;;;;;15.48;80.42;101367.75;5028600;28;20049;-60
2020/12/20 03:26:43;;;;;;;12.60;4.43;;;;;;;15.65;79.91;101359.13;5031236;28;20132;-60
2020/12/20 03:29:44;;;;;;;13.45;5.32;;;;;;;15.87;78.05;101363.13;5026535;28;20136;-59
2020/12/20 03:32:34;;;;;;;9.52;4.57;;;;;;;15.56;80.06;101378.25;5031201;28;20045;-60
2020/12/20 03:35:17;;;;;;;15.85;5.22;;;;;;;15.90;76.77;101376.22;5047133;28;20045;-60
2020/12/20 03:37:55;;;;;;;11.73;4.53;;;;;;;15.54;80.05;101372.28;5047566;28;20046;-60
2020/12/20 03:40:24;;;;;;;12.38;4.38;;;;;;;15.59;79.51;101368.94;5030230;28;20389;-60
2020/12/20 03:42:51;;;;;;;10.57;4.55;;;;;;;15.30;82.55;101373.81;5031248;28;20068;-60
2020/12/20 03:45:18;;;;;;;9.68;4.03;;;;;;;15.27;83.29;101377.78;5030243;28;20052;-59
2020/12/20 03:47:45;;;;;;;18.95;6.18;;;;;;;15.67;80.50;101390.25;5030880;28;20057;-60
2020/12/20 03:50:11;;;;;;;11.20;4.82;;;;;;;15.81;78.67;101377.50;5046745;28;20068;-60
2020/12/20 03:52:37;;;;;;;7.57;3.67;;;;;;;15.71;78.95;101369.06;5030332;28;20053;-60
2020/12/20 03:55:11;;;;;;;10.88;4.43;;;;;;;15.76;77.80;101361.16;5030122;28;20044;-60
2020/12/20 03:57:36;;;;;;;16.10;4.67;;;;;;;15.65;78.96;101378.00;5030896;28;20458;-59
2020/12/20 04:00:04;;;;;;;15.48;4.93;;;;;;;15.37;81.60;101369.25;5028198;28;20291;-60
2020/12/20 04:02:40;;;;;;;8.80;5.07;;;;;;;15.63;79.42;101370.97;5011969;28;20129;-60
2020/12/20 04:05:06;;;;;;;22.08;7.35;;;;;;;15.26;82.03;101365.34;5010938;28;20034;-60
2020/12/20 04:07:33;;;;;;;15.68;4.90;;;;;;;15.50;80.52;101371.06;5010136;28;20038;-60
2020/12/20 04:10:00;;;;;;;14.88;4.70;;;;;;;15.59;80.35;101368.94;5010756;28;20339;-61
2020/12/20 04:12:28;;;;;;;11.90;4.47;;;;;;;15.54;80.58;101371.44;4994041;28;20144;-60
2020/12/20 04:14:54;;;;;;;16.43;4.37;;;;;;;15.66;78.57;101350.84;5010676;28;20120;-61
2020/12/20 04:17:19;;;;;;;13.55;4.70;;;;;;;15.66;78.32;101358.94;5009226;28;20033;-60
2020/12/20 04:19:45;;;;;;;16.20;4.23;;;;;;;15.59;80.08;101364.34;5010950;28;20129;-60
2020/12/20 04:22:31;;;;;;;13.15;4.40;;;;;;;15.54;79.45;101366.88;5011060;28;20636;-60
2020/12/20 04:25:16;;;;;;;17.08;4.93;;;;;;;15.68;79.59;101364.09;5006600;28;20046;-60
2020/12/20 04:28:02;;;;;;;18.52;4.60;;;;;;;15.33;81.80;101376.09;5011519;28;20046;-60
2020/12/20 04:30:28;;;;;;;10.50;4.75;;;;;;;15.42;80.76;101369.44;5009998;28;20050;-60
2020/12/20 04:32:59;;;;;;;11.75;4.30;;;;;;;15.39;81.62;101369.84;4997785;28;20145;-61
2020/12/20 04:35:26;;;;;;;11.73;4.50;;;;;;;15.31;82.34;101368.22;5029578;28;20041;-61
2020/12/20 04:37:51;;;;;;;14.43;4.00;;;;;;;15.46;80.72;101377.91;5030047;28;20037;-61
2020/12/20 04:40:26;;;;;;;11.95;4.63;;;;;;;15.10;83.43;101374.72;5029496;28;20322;-60
2020/12/20 04:43:12;;;;;;;11.18;4.43;;;;;;;15.46;80.97;101388.69;5030344;28;20484;-60
2020/12/20 04:45:39;;;;;;;13.63;4.53;;;;;;;15.18;82.76;101374.50;5031874;28;20164;-60
2020/12/20 04:48:11;;;;;;;14.27;4.65;;;;;;;15.66;79.73;101371.56;5035659;28;20049;-62
2020/12/20 04:50:47;;;;;;;13.10;5.55;;;;;;;15.20;83.09;101393.97;5025446;28;20465;-60
2020/12/20 04:53:14;;;;;;;16.23;4.80;;;;;;;15.54;80.88;101383.03;5034497;28;20115;-56
2020/12/20 04:55:52;;;;;;;16.85;4.68;;;;;;;15.51;79.42;101361.91;5015471;28;20103;-60
2020/12/20 04:58:35;;;;;;;20.90;7.40;;;;;;;15.34;81.43;101367.78;5015435;28;20049;-59
2020/12/20 05:01:20;;;;;;;10.07;4.22;;;;;;;15.08;83.62;101373.28;5029849;28;20127;-59
2020/12/20 05:03:47;;;;;;;13.27;4.13;;;;;;;15.49;79.75;101367.50;5013922;28;20052;-60
2020/12/20 05:06:16;;;;;;;8.60;4.15;;;;;;;15.53;79.63;101369.78;5030008;28;20334;-60
2020/12/20 05:08:45;;;;;;;12.13;5.03;;;;;;;15.55;79.14;101383.84;5030208;28;20397;-60
2020/12/20 05:11:51;;;;;;;12.15;5.25;;;;;;;15.60;78.83;101389.47;5013659;28;20042;-57
2020/12/20 05:14:35;;;;;;;;;;;;;;;15.70;77.39;101389.00;4989190;28;20042;-60
2020/12/20 05:17:17;;;;;;;15.77;5.05;;;;;;;15.87;75.92;101387.41;5013505;28;19938;-60
2020/12/20 05:19:54;;;;;;;9.50;4.05;;;;;;;15.51;78.67;101388.88;5030153;28;20081;-60
2020/12/20 05:22:22;;;;;;;14.82;5.85;;;;;;;15.76;76.85;101386.22;5029108;28;20042;-60
2020/12/20 05:24:56;;;;;;;11.27;4.93;;;;;;;15.90;75.38;101387.00;5026575;28;20054;-60
2020/12/20 05:27:31;;;;;;;15.35;5.10;;;;;;;15.83;76.60;101412.34;5009539;28;20385;-60
2020/12/20 05:30:16;;;;;;;11.82;4.32;;;;;;;15.66;77.00;101402.06;5012594;28;20054;-60
2020/12/20 05:33:04;;;;;;;13.85;5.60;;;;;;;15.71;77.07;101409.50;5024934;28;20073;-61
2020/12/20 05:35:32;;;;;;;13.38;5.28;;;;;;;15.60;77.97;101403.75;5013025;28;20038;-61
2020/12/20 05:37:58;;;;;;;15.45;5.95;;;;;;;15.29;79.44;101381.09;5013625;28;20371;-61
2020/12/20 05:40:29;;;;;;;12.13;5.07;;;;;;;15.64;78.13;101404.16;5012835;28;20030;-60
2020/12/20 05:42:56;;;;;;;19.83;4.45;;;;;;;15.33;79.22;101409.25;5013116;28;20049;-59
2020/12/20 05:45:26;;;;;;;16.15;4.75;;;;;;;15.72;76.84;101397.69;5012780;28;20038;-60
2020/12/20 05:48:17;;;;;;;;;;;;;;;15.34;79.37;101410.91;5013845;28;20052;-60
2020/12/20 05:50:53;;;;;;;9.88;4.75;;;;;;;15.52;78.12;101404.00;5013496;28;19913;-59
2020/12/20 05:53:28;;;;;;;14.77;5.15;;;;;;;15.24;79.84;101409.72;5012565;28;20054;-58
2020/12/20 05:55:55;;;;;;;13.52;4.97;;;;;;;15.37;79.50;101408.81;4997007;28;20100;-61
2020/12/20 05:58:21;;;;;;;15.45;4.20;;;;;;;15.26;80.32;101403.09;5014051;28;20470;-60
2020/12/20 06:00:47;;;;;;;17.10;4.97;;;;;;;15.15;80.07;101401.88;5013994;28;20041;-60
2020/12/20 06:03:13;;;;;;;16.30;5.05;;;;;;;15.34;79.38;101402.84;5014684;28;20038;-60
2020/12/20 06:05:46;;;;;;;15.27;5.50;;;;;;;15.25;80.50;101406.81;5014081;28;20065;-61
2020/12/20 06:08:14;;;;;;;17.38;4.65;;;;;;;15.42;79.37;101407.16;5014501;28;20053;-61
2020/12/20 06:10:49;;;;;;;15.13;4.45;;;;;;;15.66;76.75;101407.47;5012545;28;20065;-60
2020/12/20 06:13:22;;;;;;;18.48;6.13;;;;;;;15.99;73.65;101392.97;5013074;28;20046;-60
2020/12/20 06:15:52;;;;;;;15.02;4.85;;;;;;;15.80;74.63;101402.81;5014256;28;20042;-60
2020/12/20 06:18:23;;;;;;;12.93;5.15;;;;;;;15.46;77.47;101396.78;5013975;28;20056;-60
2020/12/20 06:20:49;;;;;;;16.45;4.68;;;;;;;15.37;78.79;101408.81;5014209;28;20033;-61
2020/12/20 06:23:18;;;;;;;15.07;4.83;;;;;;;15.03;80.98;101398.16;5013894;28;20161;-60
2020/12/20 06:25:45;;;;;;;11.95;4.28;;;;;;;14.79;84.11;101418.53;5029171;28;20048;-61
2020/12/20 06:28:18;;;;;;;12.82;5.85;;;;;;;14.97;82.74;101407.91;5014765;28;20042;-61
2020/12/20 06:30:44;;;;;;;16.80;5.00;;;;;;;15.30;79.89;101417.78;5013592;28;20045;-60
2020/12/20 06:33:17;;;;;;;13.85;4.80;;;;;;;14.93;82.20;101414.75;5014027;28;20046;-60
2020/12/20 06:35:48;;;;;;;25.00;5.82;;;;;;;15.39;79.62;101422.91;5013136;28;20104;-61
2020/12/20 06:38:17;;;;;;;17.05;5.15;;;;;;;15.34;78.24;101405.53;5013608;28;20116;-60
2020/12/20 06:40:43;;;;;;;18.23;4.50;;;;;;;15.20;79.18;101403.91;5011999;28;20124;-61
2020/12/20 06:43:10;;;;;;;16.73;4.63;;;;;;;14.81;82.67;101411.06;5013579;28;20064;-61
2020/12/20 06:45:48;;;;;;;15.35;4.43;;;;;;;14.68;84.51;101406.50;5012988;28;20475;-60
2020/12/20 06:48:14;;;;;;;14.68;5.20;;;;;;;14.74;84.28;101411.06;5013283;28;20034;-61
2020/12/20 06:50:41;;;;;;;16.75;5.10;;;;;;;15.08;82.07;101421.78;5012970;28;20045;-60
2020/12/20 06:53:12;;;;;;;15.57;4.78;;;;;;;14.77;83.40;101413.34;5013120;28;20452;-59
2020/12/20 06:55:38;;;;;;;18.67;5.00;;;;;;;14.88;83.41;101415.41;5012972;28;20034;-61
2020/12/20 06:58:03;;;;;;;19.95;5.25;;;;;;;15.52;78.41;101422.88;5013125;28;20044;-60
2020/12/20 07:00:48;;;;;;;17.93;4.90;;;;;;;15.13;81.40;101425.50;5012590;28;20045;-60
2020/12/20 07:03:35;;;;;;;17.77;5.75;;;;;;;15.09;80.96;101426.13;5013221;28;20033;-60
2020/12/20 07:06:07;;;;;;;16.67;5.35;;;;;;;15.45;78.99;101422.06;5013381;28;20136;-59
2020/12/20 07:08:34;;;;;;;17.42;5.75;;;;;;;15.47;78.38;101430.78;5011405;28;20067;-61
2020/12/20 07:11:02;;;;;;;11.75;4.00;;;;;;;15.19;80.80;101439.97;5012971;28;20042;-62
2020/12/20 07:13:33;;;;;;;14.10;4.70;;;;;;;15.30;79.56;101439.34;5012532;28;20037;-61
2020/12/20 07:16:10;;;;;;;17.00;4.80;;;;;;;15.24;79.34;101426.72;5011524;28;20087;-59
2020/12/20 07:18:58;;;;;;;19.02;5.00;;;;;;;15.13;81.23;101440.81;5011174;28;20435;-60
2020/12/20 07:21:23;;;;;;;22.50;6.88;;;;;;;14.94;82.45;101456.00;5023397;28;20045;-60
2020/12/20 07:23:54;;;;;;;13.37;5.03;;;;;;;14.83;83.30;101436.72;5032143;28;20063;-60
2020/12/20 07:26:20;;;;;;;18.33;5.68;;;;;;;14.47;86.93;101444.19;5028827;28;20055;-60
2020/12/20 07:28:46;;;;;;;9.68;4.13;;;;;;;14.75;84.41;101440.47;5011951;28;20041;-61
2020/12/20 07:31:16;;;;;;;14.63;5.30;;;;;;;14.87;83.83;101445.22;5012395;28;20041;-60
2020/12/20 07:33:42;;;;;;;21.00;5.20;;;;;;;15.51;78.53;101448.19;5012141;28;20037;-61
2020/12/20 07:36:08;;;;;;;16.73;4.88;;;;;;;15.38;79.60;101435.56;5012705;28;20411;-60
2020/12/20 07:38:34;;;;;;;28.45;6.20;;;;;;;15.18;80.20;101449.94;5012379;28;20083;-62
2020/12/20 07:41:00;;;;;;;20.05;5.53;;;;;;;15.29;78.99;101432.28;5013137;28;20408;-61
2020/12/20 07:43:25;;;;;;;18.17;5.50;;;;;;;15.46;78.14;101442.59;5028198;28;20033;-60
2020/12/20 07:46:05;;;;;;;17.55;5.47;;;;;;;15.00;81.31;101423.69;5012448;28;20473;-60
2020/12/20 07:48:30;;;;;;;17.83;5.97;;;;;;;15.20;79.02;101429.00;5011737;28;20049;-58
2020/12/20 07:51:17;;;;;;;15.38;5.15;;;;;;;14.95;81.07;101434.22;5013311;28;20041;-61
2020/12/20 07:54:00;;;;;;;25.13;6.55;;;;;;;15.29;79.69;101451.16;5031645;28;20090;-60
2020/12/20 07:56:29;;;;;;;15.20;5.13;;;;;;;14.80;83.55;101453.31;5032111;28;20067;-61
2020/12/20 07:58:59;;;;;;;15.20;5.13;;;;;;;15.18;81.12;101455.31;5031740;28;20041;-60
2020/12/20 08:01:25;;;;;;;20.73;5.82;;;;;;;15.03;81.42;101462.81;5031839;28;20466;-61
2020/12/20 08:04:20;;;;;;;21.80;4.78;;;;;;;15.55;78.42;101456.66;5030185;28;20049;-60
2020/12/20 08:06:47;;;;;;;25.33;5.57;;;;;;;15.31;79.33;101472.47;5022123;28;20119;-59
2020/12/20 08:09:18;;;;;;;12.70;4.10;;;;;;;15.27;79.75;101474.78;5031399;28;20040;-60
2020/12/20 08:11:48;;;;;;;15.45;4.70;;;;;;;14.82;82.91;101466.56;5030030;28;20056;-61
2020/12/20 08:14:15;;;;;;;19.20;4.90;;;;;;;15.23;79.50;101473.56;5031880;28;20041;-62
2020/12/20 08:16:50;;;;;;;22.25;5.93;;;;;;;15.16;79.74;101473.56;5029883;28;20034;-59
2020/12/20 08:19:18;;;;;;;21.17;6.00;;;;;;;15.17;80.41;101487.84;5032109;28;20038;-61
2020/12/20 08:21:52;;;;;;;21.15;4.78;;;;;;;15.04;82.38;101491.41;5031353;28;20044;-60
2020/12/20 08:24:21;;;;;;;19.27;4.55;;;;;;;15.21;80.81;101486.38;5031746;28;20033;-60
2020/12/20 08:26:48;;;;;;;18.00;5.50;;;;;;;14.90;82.85;101477.97;5031320;28;20558;-60
2020/12/20 08:29:15;;;;;;;26.10;4.57;;;;;;;14.66;84.75;101492.84;5031954;28;20184;-59
2020/12/20 08:31:41;;;;;;;20.08;5.38;;;;;;;14.44;87.53;101495.72;5029764;28;20053;-60
2020/12/20 08:34:21;;;;;;;20.95;4.85;;;;;;;14.73;84.14;101485.63;5031288;28;20037;-59
2020/12/20 08:36:49;;;;;;;13.70;4.85;;;;;;;15.22;80.83;101504.22;5021933;28;20504;-60
2020/12/20 08:39:15;;;;;;;14.60;5.38;;;;;;;14.85;83.59;101509.25;5011914;28;20121;-60
2020/12/20 08:41:40;;;;;;;19.57;4.37;;;;;;;14.96;82.82;101502.41;5026043;28;20048;-62
2020/12/20 08:44:07;;;;;;;27.20;5.57;;;;;;;15.05;81.53;101503.81;5030284;28;20128;-60
2020/12/20 08:46:34;;;;;;;;;;;;;;;15.24;80.60;101510.25;5028922;28;20482;-61
2020/12/20 08:49:22;;;;;;;26.30;4.70;;;;;;;15.12;81.16;101498.44;5021917;28;19917;-60
2020/12/20 08:51:49;;;;;;;13.10;5.70;;;;;;;15.10;81.63;101506.72;5021700;28;20442;-59
2020/12/20 08:54:28;;;;;;;21.10;4.78;;;;;;;14.91;83.30;101516.47;5022847;28;20046;-61
2020/12/20 08:57:03;;;;;;;18.23;5.50;;;;;;;15.09;81.25;101502.38;5021465;28;20033;-60
2020/12/20 08:59:34;;;;;;;27.33;6.45;;;;;;;15.00;83.13;101528.72;5021610;28;20450;-61
2020/12/20 09:02:02;;;;;;;19.10;6.30;;;;;;;15.22;80.79;101536.53;5021355;28;20414;-60
2020/12/20 09:04:30;;;;;;;17.30;6.18;;;;;;;15.38;78.66;101521.81;5023690;28;20038;-59
2020/12/20 09:07:15;;;;;;;15.40;5.32;;;;;;;15.18;80.96;101533.47;5025004;28;20045;-60
2020/12/20 09:09:40;;;;;;;16.70;4.82;;;;;;;15.40;79.26;101529.69;5025789;28;20044;-60
2020/12/20 09:12:17;;;;;;;18.50;5.05;;;;;;;15.09;82.08;101537.38;5029890;28;20390;-62
2020/12/20 09:15:02;;;;;;;19.58;5.95;;;;;;;15.37;79.70;101533.63;5028163;28;20083;-60
2020/12/20 09:17:32;;;;;;;18.20;4.93;;;;;;;15.42;79.52;101530.28;5027403;28;20116;-60
2020/12/20 09:19:59;;;;;;;19.10;4.95;;;;;;;15.45;79.47;101530.72;5023480;28;20037;-61
2020/12/20 09:22:54;;;;;;;23.92;5.28;;;;;;;15.27;80.48;101533.22;5039783;28;20044;-60
2020/12/20 09:25:34;;;;;;;17.92;5.13;;;;;;;15.17;81.25;101539.88;5024538;28;20391;-60
2020/12/20 09:28:03;;;;;;;18.48;4.60;;;;;;;15.69;77.54;101541.03;5025319;28;20049;-61
2020/12/20 09:30:36;;;;;;;23.23;4.80;;;;;;;15.46;78.36;101532.38;5024740;28;20070;-60
2020/12/20 09:33:20;;;;;;;13.43;4.55;;;;;;;15.54;78.62;101544.78;5031610;28;20033;-61
2020/12/20 09:35:56;;;;;;;19.20;5.43;;;;;;;15.86;76.06;101547.56;5032622;28;20132;-60
2020/12/20 09:38:23;;;;;;;20.73;4.90;;;;;;;15.63;77.37;101548.91;5031304;28;20108;-60
2020/12/20 09:41:04;;;;;;;15.52;3.50;;;;;;;15.48;79.20;101546.44;5033288;28;20440;-58
2020/12/20 09:43:30;;;;;;;24.75;7.07;;;;;;;15.87;75.84;101543.84;5034049;28;20104;-60
2020/12/20 09:45:56;;;;;;;18.15;4.82;;;;;;;15.67;78.03;101553.88;5033720;28;20064;-59
2020/12/20 09:48:21;;;;;;;20.65;5.72;;;;;;;15.87;76.73;101543.84;5034300;28;20152;-58
2020/12/20 09:50:47;;;;;;;21.43;4.80;;;;;;;15.71;76.97;101555.94;5033019;28;20088;-60
2020/12/20 09:53:13;;;;;;;16.55;4.43;;;;;;;15.44;79.91;101549.78;5033525;28;20037;-60
2020/12/20 09:55:41;;;;;;;23.27;4.45;;;;;;;15.59;78.85;101553.06;5024592;28;20038;-58
2020/12/20 09:58:14;;;;;;;15.95;4.65;;;;;;;15.51;79.81;101549.75;5022462;28;20094;-60
2020/12/20 10:00:41;;;;;;;21.70;5.25;;;;;;;15.37;81.14;101546.28;5023623;28;20525;-60
2020/12/20 10:03:07;;;;;;;;;;;;;;;15.64;78.78;101557.84;5022657;28;20108;-59
2020/12/20 10:05:33;;;;;;;18.00;4.87;;;;;;;15.62;78.49;101557.22;5020458;28;20020;-59
2020/12/20 10:07:59;;;;;;;15.68;5.80;;;;;;;15.82;77.40;101561.72;5038065;28;20048;-60
2020/12/20 10:10:25;;;;;;;26.35;5.45;;;;;;;15.93;76.46;101565.66;5023046;28;20034;-61
2020/12/20 10:12:51;;;;;;;24.35;5.70;;;;;;;15.85;76.89;101555.91;5020730;28;20037;-60
2020/12/20 10:15:17;;;;;;;18.27;4.15;;;;;;;16.02;75.85;101550.88;5023602;28;20037;-60
2020/12/20 10:17:43;;;;;;;19.73;4.63;;;;;;;16.17;74.57;101567.63;5020786;28;20034;-57
2020/12/20 10:20:08;;;;;;;18.50;4.35;;;;;;;15.88;75.82;101558.16;5022080;28;20104;-59
2020/12/20 10:22:34;;;;;;;25.83;4.80;;;;;;;15.65;77.95;101556.78;5023667;28;20110;-61
2020/12/20 10:24:59;;;;;;;21.80;5.47;;;;;;;16.75;71.44;101560.41;5021634;28;20177;-59
2020/12/20 10:27:25;;;;;;;21.57;4.30;;;;;;;16.43;73.38;101557.72;5030980;28;20045;-61
2020/12/20 10:29:50;;;;;;;19.63;4.67;;;;;;;16.72;70.39;101554.59;5033582;28;20037;-60
2020/12/20 10:32:16;;;;;;;12.07;4.20;;;;;;;16.77;69.27;101531.31;5034286;28;20041;-61
2020/12/20 10:34:41;;;;;;;20.03;4.67;;;;;;;17.22;67.53;101543.00;5035410;28;20065;-60
2020/12/20 10:37:08;;;;;;;22.10;4.57;;;;;;;17.51;64.56;101540.63;5034301;28;20029;-60
2020/12/20 10:39:33;;;;;;;22.27;4.60;;;;;;;18.53;58.95;101545.59;5033766;28;20266;-60
2020/12/20 10:41:59;;;;;;;17.20;5.67;;;;;;;18.60;57.25;101544.44;5033282;28;20116;-60
2020/12/20 10:44:24;;;;;;;13.10;3.70;;;;;;;18.43;58.59;101540.75;5035225;28;20041;-60
2020/12/20 10:46:51;;;;;;;19.67;4.55;;;;;;;17.83;61.33;101551.28;5033649;28;20041;-61
2020/12/20 10:49:18;;;;;;;16.27;5.10;;;;;;;17.75;61.77;101557.84;5033640;28;20056;-60
2020/12/20 10:51:44;;;;;;;;;;;;;;;17.37;64.41;101556.16;5032679;28;20296;-59
2020/12/20 10:54:10;;;;;;;16.23;4.67;;;;;;;17.88;61.39;101562.25;5064708;28;19925;-61
2020/12/20 10:56:35;;;;;;;24.52;5.43;;;;;;;17.45;64.14;101563.16;5033011;28;20770;-61
2020/12/20 10:59:01;;;;;;;23.13;4.20;;;;;;;17.23;64.96;101573.56;5032240;28;20113;-61
2020/12/20 11:01:26;;;;;;;18.30;5.03;;;;;;;17.44;63.55;101561.50;5028907;28;20283;-61
2020/12/20 11:03:52;;;;;;;13.97;3.80;;;;;;;17.45;63.84;101558.59;5032239;28;20037;-60
2020/12/20 11:06:23;;;;;;;15.10;4.67;;;;;;;17.44;64.14;101546.13;5032553;28;20128;-61
2020/12/20 11:08:49;;;;;;;19.47;5.73;;;;;;;17.74;62.96;101566.16;5032284;28;20037;-60
2020/12/20 11:11:16;;;;;;;20.45;5.07;;;;;;;16.82;66.94;101543.31;5032923;28;20300;-61
2020/12/20 11:13:45;;;;;;;24.50;4.47;;;;;;;16.78;68.41;101535.66;5014945;28;20524;-60
2020/12/20 11:16:20;;;;;;;19.93;5.43;;;;;;;16.67;68.35;101536.38;5027497;28;20279;-59
2020/12/20 11:18:47;;;;;;;17.20;4.90;;;;;;;16.77;67.62;101544.00;5021382;28;20267;-61
2020/12/20 11:21:14;;;;;;;20.27;5.77;;;;;;;16.70;68.47;101540.50;5025117;28;20290;-62
2020/12/20 11:23:40;;;;;;;28.00;5.83;;;;;;;16.59;68.21;101523.13;5020877;28;20347;-60
2020/12/20 11:26:24;;;;;;;;;;;;;;;16.64;68.66;101547.63;5020784;28;20263;-61
2020/12/20 11:28:51;;;;;;;20.17;6.00;;;;;;;16.73;67.27;101554.41;5037013;28;19955;-59
2020/12/20 11:31:19;;;;;;;27.00;6.83;;;;;;;16.26;70.68;101541.22;5023918;28;20263;-61
2020/12/20 11:33:45;;;;;;;20.97;7.57;;;;;;;16.38;71.11;101535.13;5021688;28;20312;-60